Time;durP1;ratioP1;P1;durP2;ratioP2;P2;SDS_P1;SDS_P2;PMS_P1;PMS_P2;Temp;Humidity;BMP_temperature;BMP_pressure;BME280_temperature;BME280_humidity;BME280_pressure;Samples;Min_cycle;Max_cycle;Signal;HPM_P1;HPM_P2
2022/08/24 00:00:06;;;;;;;7.80;2.90;;;20.30;99.90;;;;;;5077521;28;20435;-65
2022/08/24 00:02:35;;;;;;;4.63;3.83;;;20.20;99.90;;;;;;5078097;28;20782;-61
2022/08/24 00:05:02;;;;;;;6.57;3.80;;;20.20;99.90;;;;;;5078723;28;20527;-61
2022/08/24 00:07:29;;;;;;;6.27;3.60;;;20.10;99.90;;;;;;5077918;28;20443;-60
2022/08/24 00:09:56;;;;;;;4.90;3.77;;;20.10;99.90;;;;;;5077409;28;20490;-60
2022/08/24 00:12:23;;;;;;;6.47;3.90;;;20.10;99.90;;;;;;5077081;28;20460;-61
2022/08/24 00:14:50;;;;;;;6.17;4.00;;;20.10;99.90;;;;;;5077634;28;20514;-61
2022/08/24 00:17:19;;;;;;;5.30;3.90;;;20.10;99.90;;;;;;5077578;28;20459;-61
2022/08/24 00:19:47;;;;;;;4.20;3.73;;;20.10;99.90;;;;;;5078167;28;20450;-58
2022/08/24 00:22:14;;;;;;;11.90;3.87;;;20.10;99.90;;;;;;5078261;28;20531;-60
2022/08/24 00:24:41;;;;;;;5.43;3.47;;;20.10;99.90;;;;;;5077331;28;20505;-61
2022/08/24 00:27:08;;;;;;;4.17;3.77;;;20.00;99.90;;;;;;5077267;28;20537;-61
2022/08/24 00:29:35;;;;;;;7.30;4.10;;;20.00;99.90;;;;;;5081239;28;20519;-62
2022/08/24 00:32:02;;;;;;;4.30;3.50;;;20.00;99.90;;;;;;5082290;28;20541;-61
2022/08/24 00:34:30;;;;;;;6.40;3.77;;;20.00;99.90;;;;;;5082572;28;20466;-60
2022/08/24 00:36:58;;;;;;;5.97;3.93;;;20.00;99.90;;;;;;5082416;28;20438;-55
2022/08/24 00:39:25;;;;;;;4.30;3.73;;;20.00;99.90;;;;;;5082282;28;20466;-58
2022/08/24 00:41:53;;;;;;;4.00;3.60;;;20.00;99.90;;;;;;5082517;28;20484;-61
2022/08/24 00:44:20;;;;;;;4.03;3.60;;;19.90;99.90;;;;;;5081188;28;20490;-56
2022/08/24 00:46:54;;;;;;;4.60;3.57;;;19.90;99.90;;;;;;5080887;28;20473;-59
2022/08/24 00:49:26;;;;;;;4.47;3.83;;;19.90;99.90;;;;;;5080902;28;20455;-61
2022/08/24 00:52:05;;;;;;;6.43;4.50;;;19.90;99.90;;;;;;5080791;28;20477;-51
2022/08/24 00:54:36;;;;;;;5.30;3.83;;;19.90;99.90;;;;;;5081295;28;20468;-60
2022/08/24 00:57:06;;;;;;;4.77;3.40;;;19.90;99.90;;;;;;5081005;28;20433;-60
2022/08/24 00:59:38;;;;;;;5.17;3.00;;;19.90;99.90;;;;;;5081505;28;20470;-61
2022/08/24 01:02:09;;;;;;;4.37;3.83;;;19.90;99.90;;;;;;5081121;28;20787;-60
2022/08/24 01:04:42;;;;;;;5.07;3.93;;;19.80;99.90;;;;;;5080492;28;20583;-60
2022/08/24 01:07:11;;;;;;;4.70;3.40;;;19.80;99.90;;;;;;5080742;28;20415;-58
2022/08/24 01:09:37;;;;;;;4.37;3.27;;;19.80;99.90;;;;;;5080398;28;20446;-61
2022/08/24 01:12:05;;;;;;;4.53;4.03;;;19.80;99.90;;;;;;5080575;28;21040;-61
2022/08/24 01:14:32;;;;;;;4.03;3.47;;;19.70;99.90;;;;;;5080661;28;20543;-60
2022/08/24 01:19:45;;;;;;;5.87;4.13;;;19.70;99.90;;;;;;5080609;28;20417;-61
2022/08/24 01:22:29;;;;;;;4.60;4.07;;;19.70;99.90;;;;;;5080938;28;20457;-60
2022/08/24 01:24:58;;;;;;;4.53;3.23;;;19.70;99.90;;;;;;5079971;28;20430;-60
2022/08/24 01:27:25;;;;;;;5.10;3.33;;;19.70;99.90;;;;;;5080548;28;20846;-61
2022/08/24 01:29:53;;;;;;;11.93;4.10;;;19.70;99.90;;;;;;5080222;28;20463;-61
2022/08/24 01:32:23;;;;;;;5.77;4.10;;;19.60;99.90;;;;;;5080674;28;20458;-60
2022/08/24 01:34:50;;;;;;;6.70;4.93;;;19.60;99.90;;;;;;5080270;28;20474;-60
2022/08/24 01:37:17;;;;;;;4.60;3.80;;;19.60;99.90;;;;;;5080200;28;20453;-60
2022/08/24 01:39:47;;;;;;;5.60;4.10;;;19.60;99.90;;;;;;5079248;28;20447;-60
2022/08/24 01:42:15;;;;;;;5.40;4.03;;;19.60;99.90;;;;;;5080069;28;20764;-60
2022/08/24 01:44:44;;;;;;;4.70;4.10;;;19.60;99.90;;;;;;5080533;28;20458;-54
2022/08/24 01:47:13;;;;;;;7.50;3.80;;;19.60;99.90;;;;;;5080214;28;20572;-60
2022/08/24 01:49:44;;;;;;;5.57;4.97;;;19.60;99.90;;;;;;5080557;28;20514;-60
2022/08/24 01:52:14;;;;;;;6.10;4.90;;;19.70;99.90;;;;;;5079738;28;20485;-56
2022/08/24 01:54:42;;;;;;;5.60;4.40;;;19.70;99.90;;;;;;5079540;28;20446;-57
2022/08/24 01:57:09;;;;;;;7.70;5.07;;;19.60;99.90;;;;;;5079837;28;20951;-63
2022/08/24 01:59:37;;;;;;;6.33;4.43;;;19.60;99.90;;;;;;5080021;28;20466;-62
2022/08/24 02:02:08;;;;;;;7.40;4.60;;;19.60;99.90;;;;;;5080736;28;20541;-62
2022/08/24 02:04:36;;;;;;;5.20;4.13;;;19.60;99.90;;;;;;5080739;28;20522;-62
2022/08/24 02:07:04;;;;;;;12.03;4.27;;;19.60;99.90;;;;;;5080914;28;20503;-59
2022/08/24 02:09:31;;;;;;;8.07;4.90;;;19.60;99.90;;;;;;5080607;28;20918;-60
2022/08/24 02:11:58;;;;;;;9.93;6.10;;;19.70;99.90;;;;;;5080102;28;20533;-63
2022/08/24 02:14:27;;;;;;;12.13;5.53;;;19.70;99.90;;;;;;5080240;28;20453;-57
2022/08/24 02:16:56;;;;;;;10.20;5.83;;;19.70;99.90;;;;;;5080547;28;20473;-60
2022/08/24 02:19:22;;;;;;;9.97;6.70;;;19.70;99.90;;;;;;5080712;28;20550;-61
2022/08/24 02:21:49;;;;;;;10.57;7.20;;;19.70;99.90;;;;;;5079879;28;20460;-60
2022/08/24 02:24:16;;;;;;;17.07;8.23;;;19.70;99.90;;;;;;5079591;28;20496;-57
2022/08/24 02:26:43;;;;;;;14.47;7.70;;;19.80;99.90;;;;;;5079619;28;20541;-54
2022/08/24 02:29:10;;;;;;;17.57;9.27;;;19.80;99.90;;;;;;5079562;28;20438;-60
2022/08/24 02:31:37;;;;;;;19.53;9.30;;;19.80;99.90;;;;;;5079364;28;20498;-60
2022/08/24 02:34:05;;;;;;;16.47;9.57;;;19.80;99.90;;;;;;5079238;28;20459;-61
2022/08/24 02:36:32;;;;;;;18.37;9.83;;;19.80;99.90;;;;;;5079117;28;20593;-58
2022/08/24 02:38:59;;;;;;;24.70;11.43;;;19.90;99.90;;;;;;5078714;28;20536;-54
2022/08/24 02:41:26;;;;;;;16.20;8.67;;;19.90;99.90;;;;;;5078843;28;20811;-55
2022/08/24 02:43:54;;;;;;;18.93;9.40;;;19.90;99.90;;;;;;5078205;28;20970;-61
2022/08/24 02:46:22;;;;;;;25.97;10.43;;;19.90;99.90;;;;;;5078531;28;20899;-60
2022/08/24 02:48:49;;;;;;;24.97;11.30;;;20.00;99.90;;;;;;5078888;28;20549;-60
2022/08/24 02:51:22;;;;;;;17.37;9.60;;;20.00;99.90;;;;;;5078907;28;20455;-60
2022/08/24 02:53:49;;;;;;;21.00;12.63;;;19.90;99.90;;;;;;5078779;28;20469;-60
2022/08/24 02:56:17;;;;;;;22.33;11.93;;;19.90;99.90;;;;;;5078960;28;20485;-58
2022/08/24 02:58:44;;;;;;;19.63;10.90;;;19.90;99.90;;;;;;5078302;28;20455;-58
2022/08/24 03:01:12;;;;;;;23.73;11.83;;;19.90;99.90;;;;;;5078915;28;20462;-63
2022/08/24 03:03:39;;;;;;;20.50;10.43;;;19.90;99.90;;;;;;5078698;28;20934;-61
2022/08/24 03:06:07;;;;;;;18.87;11.07;;;19.80;99.90;;;;;;5078508;28;20502;-60
2022/08/24 03:08:36;;;;;;;18.90;10.77;;;19.80;99.90;;;;;;5078308;28;20458;-58
2022/08/24 03:11:04;;;;;;;20.30;11.20;;;19.80;99.90;;;;;;5078485;28;20476;-57
2022/08/24 03:13:32;;;;;;;18.40;10.57;;;19.80;99.90;;;;;;5078416;28;20449;-52
2022/08/24 03:15:59;;;;;;;19.23;9.93;;;19.70;99.90;;;;;;5077858;28;20568;-59
2022/08/24 03:18:26;;;;;;;18.33;10.27;;;19.70;99.90;;;;;;5078257;28;20462;-58
2022/08/24 03:20:54;;;;;;;21.33;13.37;;;19.70;99.90;;;;;;5079183;28;20504;-61
2022/08/24 03:23:22;;;;;;;24.33;10.40;;;19.60;99.90;;;;;;5079013;28;20456;-61
2022/08/24 03:25:50;;;;;;;19.47;11.17;;;19.60;99.90;;;;;;5078911;28;20554;-60
2022/08/24 03:28:17;;;;;;;28.53;11.07;;;19.60;99.90;;;;;;5078469;28;20450;-60
2022/08/24 03:30:44;;;;;;;21.80;10.60;;;19.60;99.90;;;;;;5077522;28;20477;-59
2022/08/24 03:33:11;;;;;;;22.30;10.87;;;19.60;99.90;;;;;;5077881;28;20549;-57
2022/08/24 03:35:39;;;;;;;20.00;10.73;;;19.50;99.90;;;;;;5077964;28;20492;-57
2022/08/24 03:38:06;;;;;;;19.33;10.90;;;19.50;99.90;;;;;;5077633;28;20526;-56
2022/08/24 03:40:33;;;;;;;24.33;12.00;;;19.50;99.90;;;;;;5077645;28;20446;-58
2022/08/24 03:43:02;;;;;;;14.77;8.67;;;19.50;99.90;;;;;;5077658;28;20482;-58
2022/08/24 03:45:29;;;;;;;15.43;10.90;;;19.40;99.90;;;;;;5077790;28;20941;-55
2022/08/24 03:47:57;;;;;;;17.70;10.87;;;19.40;99.90;;;;;;5078548;28;20542;-56
2022/08/24 03:50:25;;;;;;;19.53;12.23;;;19.40;99.90;;;;;;5078883;28;20447;-63
2022/08/24 03:52:53;;;;;;;16.90;10.77;;;19.40;99.90;;;;;;5079481;28;20482;-60
2022/08/24 03:55:20;;;;;;;21.60;11.00;;;19.40;99.90;;;;;;5079084;28;20480;-62
2022/08/24 03:57:47;;;;;;;14.73;9.10;;;19.40;99.90;;;;;;5079219;28;20453;-59
2022/08/24 04:00:16;;;;;;;20.30;10.67;;;19.30;99.90;;;;;;5079280;28;20442;-58
2022/08/24 04:02:44;;;;;;;17.73;10.20;;;19.30;99.90;;;;;;5078330;28;20477;-61
2022/08/24 04:05:12;;;;;;;15.73;10.10;;;19.40;99.90;;;;;;5078116;28;20453;-60
2022/08/24 04:07:39;;;;;;;20.63;9.70;;;19.30;99.90;;;;;;5077876;28;20458;-61
2022/08/24 04:10:06;;;;;;;13.90;9.90;;;19.30;99.90;;;;;;5077438;28;20537;-59
2022/08/24 04:12:33;;;;;;;17.20;8.43;;;19.30;99.90;;;;;;5077206;28;20569;-60
2022/08/24 04:15:00;;;;;;;13.80;8.53;;;19.30;99.90;;;;;;5077393;28;20427;-57
2022/08/24 04:17:29;;;;;;;23.03;10.80;;;19.20;99.90;;;;;;5077511;28;20489;-57
2022/08/24 04:19:58;;;;;;;14.17;9.27;;;19.20;99.90;;;;;;5077468;28;20532;-61
2022/08/24 04:22:26;;;;;;;16.20;7.93;;;19.20;99.90;;;;;;5078133;28;20541;-62
2022/08/24 04:24:54;;;;;;;16.00;9.33;;;19.20;99.90;;;;;;5078244;28;20481;-54
2022/08/24 04:27:21;;;;;;;14.23;8.33;;;19.20;99.90;;;;;;5078463;28;20431;-60
2022/08/24 04:29:48;;;;;;;17.87;9.30;;;19.20;99.90;;;;;;5078439;28;20514;-61
2022/08/24 04:32:15;;;;;;;19.57;10.17;;;19.20;99.90;;;;;;5077965;28;20530;-60
2022/08/24 04:34:44;;;;;;;14.00;8.43;;;19.20;99.90;;;;;;5078108;28;20500;-59
2022/08/24 04:37:11;;;;;;;17.60;9.43;;;19.20;99.90;;;;;;5078048;28;20504;-61
2022/08/24 04:39:38;;;;;;;15.53;8.90;;;19.20;99.90;;;;;;5077665;28;20469;-61
2022/08/24 04:42:05;;;;;;;17.00;9.50;;;19.20;99.90;;;;;;5077720;28;20448;-61
2022/08/24 04:44:32;;;;;;;17.33;8.80;;;19.20;99.90;;;;;;5078125;28;20435;-55
2022/08/24 04:47:00;;;;;;;15.37;9.63;;;19.20;99.90;;;;;;5077912;28;20549;-59
2022/08/24 04:49:27;;;;;;;16.77;10.13;;;19.30;99.90;;;;;;5077097;28;20474;-61
2022/08/24 04:51:55;;;;;;;21.60;10.17;;;19.30;99.90;;;;;;5077463;28;20461;-60
2022/08/24 04:54:23;;;;;;;17.80;11.27;;;19.30;99.90;;;;;;5077438;28;20503;-57
2022/08/24 04:56:50;;;;;;;21.77;10.57;;;19.40;99.90;;;;;;5077413;28;20477;-61
2022/08/24 04:59:17;;;;;;;13.97;9.23;;;19.40;99.90;;;;;;5077383;28;20447;-60
2022/08/24 05:01:44;;;;;;;17.30;10.33;;;19.40;99.90;;;;;;5076659;28;20541;-59
2022/08/24 05:04:11;;;;;;;14.97;8.50;;;19.40;99.90;;;;;;5077383;28;20487;-60
2022/08/24 05:06:38;;;;;;;20.87;9.10;;;19.50;99.90;;;;;;5077847;28;20500;-63
2022/08/24 05:09:06;;;;;;;17.57;9.60;;;19.50;99.90;;;;;;5077119;28;20442;-63
2022/08/24 05:11:35;;;;;;;13.93;9.10;;;19.50;99.90;;;;;;5076460;28;20522;-60
2022/08/24 05:14:03;;;;;;;18.10;10.73;;;19.60;99.90;;;;;;5077313;28;20470;-60
2022/08/24 05:16:31;;;;;;;13.20;10.20;;;19.60;99.90;;;;;;5079741;28;20621;-63
2022/08/24 05:18:59;;;;;;;18.07;10.10;;;19.60;99.90;;;;;;5080544;28;20918;-56
2022/08/24 05:21:27;;;;;;;14.20;9.70;;;19.70;99.90;;;;;;5084653;28;20464;-59
2022/08/24 05:23:54;;;;;;;15.43;10.30;;;19.70;99.90;;;;;;5100249;28;20552;-58
2022/08/24 05:26:25;;;;;;;17.10;11.00;;;19.80;99.90;;;;;;5092781;28;20469;-56
2022/08/24 05:28:54;;;;;;;21.93;12.67;;;19.90;99.90;;;;;;5097557;28;20459;-62
2022/08/24 05:31:23;;;;;;;19.87;10.40;;;20.00;99.90;;;;;;5100556;28;20461;-61
2022/08/24 05:33:51;;;;;;;17.00;10.00;;;20.10;99.90;;;;;;5088383;28;20429;-62
2022/08/24 05:36:23;;;;;;;18.03;9.27;;;20.10;99.90;;;;;;5097870;28;20563;-64
2022/08/24 05:38:51;;;;;;;16.57;10.13;;;20.20;99.90;;;;;;5096610;28;21099;-62
2022/08/24 05:41:19;;;;;;;16.40;10.00;;;20.30;99.90;;;;;;5097794;28;20457;-63
2022/08/24 05:43:47;;;;;;;17.43;9.40;;;20.40;99.90;;;;;;5097012;28;20476;-65
2022/08/24 05:46:15;;;;;;;14.10;9.93;;;20.50;99.90;;;;;;5098861;28;20455;-61
2022/08/24 05:48:42;;;;;;;19.30;11.10;;;20.50;99.90;;;;;;5095980;28;20437;-59
2022/08/24 05:51:11;;;;;;;18.40;11.30;;;20.40;99.90;;;;;;5080739;28;20562;-59
2022/08/24 05:53:38;;;;;;;16.97;11.70;;;20.50;99.90;;;;;;5078992;28;20903;-61
2022/08/24 05:56:07;;;;;;;21.23;11.30;;;20.60;99.90;;;;;;5099007;28;20479;-59
2022/08/24 05:58:36;;;;;;;23.93;11.33;;;20.60;99.90;;;;;;5099167;28;20545;-64
2022/08/24 06:01:07;;;;;;;13.10;9.27;;;20.80;99.90;;;;;;5089615;28;20454;-60
2022/08/24 06:03:34;;;;;;;19.73;11.23;;;20.90;99.90;;;;;;5076754;28;20955;-55
2022/08/24 06:06:03;;;;;;;18.80;11.53;;;21.00;99.90;;;;;;5076349;28;20461;-60
2022/08/24 06:08:30;;;;;;;19.10;11.27;;;21.10;99.90;;;;;;5075640;28;20561;-55
2022/08/24 06:10:59;;;;;;;18.97;11.50;;;21.20;99.90;;;;;;5076239;28;20453;-57
2022/08/24 06:13:26;;;;;;;23.70;11.07;;;21.30;99.90;;;;;;5076609;28;20434;-61
2022/08/24 06:16:03;;;;;;;17.10;11.00;;;21.30;99.90;;;;;;5076174;28;20946;-62
2022/08/24 06:18:31;;;;;;;16.23;11.47;;;21.40;99.90;;;;;;5076265;28;20951;-59
2022/08/24 06:20:58;;;;;;;17.90;11.67;;;21.50;99.90;;;;;;5076364;28;20462;-62
2022/08/24 06:23:25;;;;;;;15.63;10.10;;;21.50;99.90;;;;;;5076346;28;20460;-58
2022/08/24 06:28:52;;;;;;;18.20;10.97;;;21.60;99.90;;;;;;4994764;28;20422;-59
2022/08/24 06:31:19;;;;;;;17.17;10.43;;;21.60;99.90;;;;;;4993802;28;20476;-51
2022/08/24 06:33:48;;;;;;;16.83;10.77;;;21.70;99.90;;;;;;5030502;28;21026;-59
2022/08/24 06:36:15;;;;;;;17.20;10.80;;;21.80;99.90;;;;;;5075752;28;20987;-60
2022/08/24 06:38:42;;;;;;;15.77;10.73;;;21.80;99.90;;;;;;5076142;28;20476;-60
2022/08/24 06:41:09;;;;;;;20.97;10.93;;;21.90;99.90;;;;;;5076208;28;20970;-61
2022/08/24 06:43:36;;;;;;;18.33;10.40;;;21.80;99.90;;;;;;5081317;28;20508;-54
2022/08/24 06:46:04;;;;;;;17.73;10.73;;;21.80;99.90;;;;;;5086587;28;20441;-59
2022/08/24 06:48:31;;;;;;;16.80;10.90;;;21.80;99.90;;;;;;5094937;28;20497;-57
2022/08/24 06:51:08;;;;;;;14.60;10.63;;;21.70;99.90;;;;;;5117206;28;20513;-45
2022/08/24 06:53:34;;;;;;;11.40;9.40;;;21.80;99.90;;;;;;5117846;28;20461;-51
2022/08/24 06:56:01;;;;;;;15.73;10.60;;;21.80;99.90;;;;;;5117750;28;20516;-50
2022/08/24 06:58:28;;;;;;;19.70;11.03;;;21.80;99.90;;;;;;5117061;28;20595;-50
2022/08/24 07:00:56;;;;;;;13.50;9.87;;;21.80;99.90;;;;;;5117809;28;20492;-53
2022/08/24 07:03:23;;;;;;;15.73;10.87;;;21.90;99.90;;;;;;5117305;28;20452;-48
2022/08/24 07:05:51;;;;;;;13.27;10.97;;;21.90;99.90;;;;;;5117997;28;20449;-45
2022/08/24 07:08:20;;;;;;;14.33;10.27;;;21.90;99.90;;;;;;5116738;28;20426;-44
2022/08/24 07:10:47;;;;;;;14.10;9.80;;;21.90;99.90;;;;;;5112801;28;20484;-37
2022/08/24 07:13:14;;;;;;;13.43;10.00;;;22.00;99.90;;;;;;5114414;28;20468;-57
2022/08/24 07:15:41;;;;;;;12.40;8.60;;;22.00;99.90;;;;;;5115175;28;20462;-52
2022/08/24 07:18:18;;;;;;;14.27;8.93;;;22.10;99.90;;;;;;5115289;28;20553;-54
2022/08/24 07:20:46;;;;;;;14.63;9.70;;;22.20;99.90;;;;;;5117951;28;20442;-55
2022/08/24 07:23:13;;;;;;;13.93;8.37;;;22.20;99.90;;;;;;5117209;28;20421;-51
2022/08/24 07:25:42;;;;;;;12.70;8.93;;;22.30;99.90;;;;;;5117631;28;20448;-54
2022/08/24 07:28:09;;;;;;;18.67;9.03;;;22.40;99.90;;;;;;5117599;28;20437;-48
2022/08/24 07:30:37;;;;;;;14.27;9.57;;;22.50;99.90;;;;;;5117193;28;20449;-55
2022/08/24 07:33:04;;;;;;;15.23;8.57;;;22.60;99.90;;;;;;5117702;28;20442;-56
2022/08/24 07:35:32;;;;;;;9.93;8.70;;;22.70;99.90;;;;;;5117006;28;20461;-44
2022/08/24 07:38:00;;;;;;;11.87;9.27;;;22.80;99.90;;;;;;5114075;28;20520;-55
2022/08/24 07:40:29;;;;;;;12.57;8.50;;;22.90;99.90;;;;;;5098176;28;20435;-56
2022/08/24 07:42:58;;;;;;;12.57;8.60;;;23.00;99.90;;;;;;5094405;28;20441;-57
2022/08/24 07:45:28;;;;;;;10.00;7.37;;;23.10;99.90;;;;;;5095434;28;20454;-59
2022/08/24 07:47:55;;;;;;;10.67;7.47;;;23.10;99.90;;;;;;5097365;28;20490;-50
2022/08/24 07:50:22;;;;;;;9.43;7.90;;;23.20;99.90;;;;;;5097422;28;20512;-43
2022/08/24 07:52:50;;;;;;;13.13;7.50;;;23.30;99.90;;;;;;5096714;28;20497;-40
2022/08/24 07:55:17;;;;;;;11.30;8.00;;;23.50;99.90;;;;;;5115693;28;20438;-54
2022/08/24 07:57:45;;;;;;;11.20;8.20;;;23.70;99.90;;;;;;5114497;28;20524;-56
2022/08/24 08:00:18;;;;;;;10.00;7.47;;;23.90;99.90;;;;;;5114339;28;20451;-55
2022/08/24 08:02:46;;;;;;;12.43;6.83;;;24.10;99.90;;;;;;5113519;28;20444;-46
2022/08/24 08:05:14;;;;;;;7.90;6.30;;;24.40;99.90;;;;;;5095214;28;20446;-48
2022/08/24 08:07:40;;;;;;;11.93;7.13;;;25.00;99.90;;;;;;5092214;28;20438;-54
2022/08/24 08:10:10;;;;;;;9.60;6.87;;;25.90;99.90;;;;;;5095353;28;20513;-56
2022/08/24 08:12:38;;;;;;;10.07;6.33;;;26.40;99.90;;;;;;5096983;28;20492;-37
2022/08/24 08:15:10;;;;;;;7.50;5.33;;;26.70;99.90;;;;;;5096404;28;20466;-51
2022/08/24 08:17:38;;;;;;;10.57;6.73;;;26.90;99.90;;;;;;5091490;28;20485;-55
2022/08/24 08:20:07;;;;;;;7.90;6.43;;;27.60;99.90;;;;;;5097669;28;20469;-54
2022/08/24 08:25:21;;;;;;;10.53;6.23;;;29.80;99.90;;;;;;5104533;28;20437;-54
2022/08/24 08:27:49;;;;;;;9.63;7.57;;;30.10;99.90;;;;;;5109499;28;20532;-60
2022/08/24 08:30:16;;;;;;;11.50;7.00;;;30.60;99.90;;;;;;5109310;28;20438;-56
2022/08/24 08:32:45;;;;;;;9.37;7.23;;;30.90;99.90;;;;;;5106477;28;20585;-53
2022/08/24 08:35:12;;;;;;;11.10;7.43;;;31.00;99.90;;;;;;5102899;28;20445;-54
2022/08/24 08:37:39;;;;;;;10.80;6.63;;;30.60;99.90;;;;;;5102464;28;20556;-52
2022/08/24 08:40:11;;;;;;;9.43;6.63;;;30.10;99.90;;;;;;5103120;28;20469;-55
2022/08/24 08:42:58;;;;;;;8.40;7.00;;;29.40;99.90;;;;;;5103991;28;20445;-55
2022/08/24 08:45:32;;;;;;;9.53;7.70;;;28.80;99.90;;;;;;5106422;28;20425;-57
2022/08/24 08:48:24;;;;;;;9.83;6.60;;;28.10;99.90;;;;;;5105547;28;20455;-56
2022/08/24 08:51:09;;;;;;;10.07;6.90;;;27.80;99.90;;;;;;5108376;28;20485;-57
2022/08/24 08:53:56;;;;;;;9.83;7.40;;;27.70;99.90;;;;;;5108573;28;20425;-54
2022/08/24 08:56:29;;;;;;;10.63;7.00;;;27.30;99.90;;;;;;5108060;28;20429;-57
2022/08/24 08:59:05;;;;;;;9.87;7.00;;;27.00;99.90;;;;;;5115720;28;20489;-45
2022/08/24 09:01:44;;;;;;;10.57;7.07;;;26.70;99.90;;;;;;5117310;28;20417;-52
2022/08/24 09:04:55;;;;;;;7.50;6.53;;;26.50;99.90;;;;;;5117543;28;20700;-49
2022/08/24 09:07:38;;;;;;;9.73;6.40;;;26.30;99.90;;;;;;5082261;28;20465;-53
2022/08/24 09:10:28;;;;;;;7.73;6.63;;;26.20;99.90;;;;;;5117920;28;20502;-54
2022/08/24 09:13:10;;;;;;;11.77;5.70;;;26.30;99.90;;;;;;5110814;28;20473;-50
2022/08/24 09:15:59;;;;;;;10.03;5.90;;;26.40;99.90;;;;;;5117896;28;20493;-52
2022/08/24 09:18:39;;;;;;;10.13;6.30;;;26.30;99.90;;;;;;5118959;28;20460;-50
2022/08/24 09:21:28;;;;;;;9.60;6.90;;;26.20;99.90;;;;;;5119035;28;20493;-52
2022/08/24 09:24:15;;;;;;;10.30;7.37;;;25.90;99.90;;;;;;5117414;28;20410;-43
2022/08/24 09:26:52;;;;;;;12.10;7.17;;;25.70;99.90;;;;;;5097759;28;20475;-51
2022/08/24 09:29:29;;;;;;;8.70;6.90;;;25.50;99.90;;;;;;5098246;28;20457;-54
2022/08/24 09:32:21;;;;;;;11.23;7.50;;;25.30;99.90;;;;;;5099069;28;20469;-52
2022/08/24 09:34:56;;;;;;;10.77;6.90;;;25.10;99.90;;;;;;5099520;28;20470;-63
2022/08/24 09:37:32;;;;;;;9.93;7.10;;;25.00;99.90;;;;;;5098745;28;20479;-62
2022/08/24 09:40:17;;;;;;;11.93;6.87;;;24.90;99.90;;;;;;5099138;28;20560;-57
2022/08/24 09:43:32;;;;;;;8.77;6.10;;;24.90;99.90;;;;;;5099152;28;20473;-58
2022/08/24 09:46:47;;;;;;;13.53;8.10;;;24.90;99.90;;;;;;5051123;28;20470;-55
2022/08/24 09:49:46;;;;;;;13.07;8.40;;;24.80;99.90;;;;;;5098573;28;20407;-59
2022/08/24 09:52:54;;;;;;;9.90;7.70;;;24.80;99.90;;;;;;5098035;28;20477;-61
2022/08/24 09:55:57;;;;;;;9.73;7.17;;;25.00;99.90;;;;;;5071220;28;20469;-56
2022/08/24 09:58:49;;;;;;;13.00;8.80;;;25.30;99.90;;;;;;5098693;28;20525;-56
2022/08/24 10:01:23;;;;;;;8.90;6.83;;;25.60;99.90;;;;;;5097671;28;20427;-59
2022/08/24 10:04:08;;;;;;;12.03;8.50;;;25.80;99.90;;;;;;5098826;28;20441;-62
2022/08/24 10:06:51;;;;;;;11.57;7.60;;;26.00;99.90;;;;;;5098681;28;20421;-59
2022/08/24 10:09:45;;;;;;;17.00;9.77;;;26.00;99.90;;;;;;5098726;28;20446;-52
2022/08/24 10:12:24;;;;;;;10.13;6.83;;;26.00;99.90;;;;;;5098523;28;20433;-59
2022/08/24 10:14:58;;;;;;;12.63;8.37;;;25.90;99.90;;;;;;5098754;28;20407;-48
2022/08/24 10:17:41;;;;;;;12.83;8.93;;;25.80;99.90;;;;;;5097965;28;20489;-56
2022/08/24 10:20:22;;;;;;;15.53;9.07;;;25.70;99.90;;;;;;5098042;28;20429;-53
2022/08/24 10:23:30;;;;;;;13.33;8.67;;;25.90;99.90;;;;;;5097619;28;20415;-51
2022/08/24 10:26:04;;;;;;;15.07;10.10;;;26.00;99.90;;;;;;5087614;28;20450;-49
2022/08/24 10:29:02;;;;;;;11.63;8.60;;;26.10;99.90;;;;;;5097367;28;20435;-55
2022/08/24 10:31:40;;;;;;;17.07;10.50;;;26.00;99.90;;;;;;5097260;28;20511;-51
2022/08/24 10:34:25;;;;;;;15.73;9.10;;;26.00;99.90;;;;;;5096864;28;20540;-52
2022/08/24 10:37:14;;;;;;;12.33;8.83;;;26.10;99.90;;;;;;5096643;28;20504;-54
2022/08/24 10:40:09;;;;;;;13.30;8.70;;;26.40;99.90;;;;;;5097208;28;20446;-47
2022/08/24 10:46:18;;;;;;;12.47;9.47;;;27.20;99.90;;;;;;5102645;28;20455;-53
2022/08/24 10:49:25;;;;;;;7.90;6.37;;;27.30;99.90;;;;;;5062800;28;20455;-57
2022/08/24 10:52:29;;;;;;;10.67;8.43;;;27.80;99.90;;;;;;5104712;28;20465;-55
2022/08/24 10:54:56;;;;;;;10.83;7.90;;;28.40;99.90;;;;;;5051964;28;20474;-58
2022/08/24 10:57:30;;;;;;;11.23;7.90;;;28.90;99.90;;;;;;5088051;28;20979;-61
2022/08/24 11:00:04;;;;;;;10.07;8.17;;;29.00;99.90;;;;;;5087477;28;20427;-57
2022/08/24 11:02:33;;;;;;;12.23;7.67;;;29.00;99.90;;;;;;5097955;28;20464;-52
2022/08/24 11:05:06;;;;;;;10.73;7.87;;;28.80;99.90;;;;;;5108049;28;20449;-58
2022/08/24 11:07:35;;;;;;;10.97;9.73;;;28.70;99.90;;;;;;5111956;28;20515;-57
2022/08/24 11:10:05;;;;;;;10.23;8.10;;;29.00;99.90;;;;;;5110262;28;20425;-53
2022/08/24 11:12:34;;;;;;;8.97;7.43;;;29.30;99.90;;;;;;5110102;28;20491;-55
2022/08/24 11:15:05;;;;;;;12.20;8.23;;;29.50;99.90;;;;;;5111461;28;20449;-57
2022/08/24 11:17:34;;;;;;;13.90;7.53;;;29.60;99.90;;;;;;5109778;28;20473;-51
2022/08/24 11:20:04;;;;;;;9.93;7.53;;;29.60;99.90;;;;;;5111899;28;20473;-55
2022/08/24 11:22:36;;;;;;;9.30;8.40;;;29.70;99.90;;;;;;5111379;28;20492;-57
2022/08/24 11:25:10;;;;;;;14.80;8.10;;;29.40;99.90;;;;;;5114016;28;20485;-58
2022/08/24 11:27:40;;;;;;;13.53;8.27;;;29.20;99.90;;;;;;5112675;28;20484;-55
2022/08/24 11:30:11;;;;;;;11.70;8.17;;;29.10;99.90;;;;;;5112090;28;20473;-54
2022/08/24 11:32:42;;;;;;;10.83;8.00;;;29.20;99.90;;;;;;5111172;28;20521;-58
2022/08/24 11:35:22;;;;;;;10.07;7.53;;;29.30;99.90;;;;;;5110318;28;20438;-61
2022/08/24 11:37:51;;;;;;;7.70;7.00;;;29.20;99.90;;;;;;5110676;28;20473;-58
2022/08/24 11:40:20;;;;;;;11.67;7.70;;;29.10;99.90;;;;;;5109081;28;20462;-58
2022/08/24 11:43:20;;;;;;;11.80;8.20;;;29.20;99.90;;;;;;5107875;28;20461;-58
2022/08/24 11:45:58;;;;;;;10.10;7.33;;;29.50;99.90;;;;;;5107589;28;20449;-57
2022/08/24 11:48:35;;;;;;;9.97;8.00;;;29.40;99.90;;;;;;5111755;28;20457;-50
2022/08/24 11:51:11;;;;;;;10.30;7.43;;;29.20;99.90;;;;;;5110232;28;20413;-55
2022/08/24 11:53:48;;;;;;;10.27;8.73;;;29.10;99.90;;;;;;5107498;28;20460;-55
2022/08/24 11:56:22;;;;;;;9.73;8.60;;;29.10;99.90;;;;;;5109214;28;20494;-57
2022/08/24 11:58:56;;;;;;;9.80;6.93;;;29.00;99.90;;;;;;5108272;28;20499;-54
2022/08/24 12:01:29;;;;;;;11.33;8.43;;;29.00;99.90;;;;;;5109435;28;20429;-53
2022/08/24 12:04:16;;;;;;;8.50;6.90;;;29.00;99.90;;;;;;5109059;28;20521;-55
2022/08/24 12:06:55;;;;;;;10.60;7.53;;;29.00;99.90;;;;;;5110167;28;20513;-57
2022/08/24 12:09:36;;;;;;;12.30;7.17;;;28.90;99.90;;;;;;5089486;28;20475;-53
2022/08/24 12:12:11;;;;;;;9.00;6.97;;;28.90;99.90;;;;;;5110776;28;20499;-57
2022/08/24 12:14:44;;;;;;;11.17;6.77;;;28.80;99.90;;;;;;5107784;28;20461;-57
2022/08/24 12:17:19;;;;;;;9.73;7.20;;;28.90;99.90;;;;;;5109073;28;20529;-58
2022/08/24 12:19:48;;;;;;;10.90;8.20;;;28.90;99.90;;;;;;5107706;28;20468;-58
2022/08/24 12:22:19;;;;;;;8.53;7.67;;;29.00;99.90;;;;;;5106782;28;20440;-58
2022/08/24 12:24:49;;;;;;;10.57;7.23;;;29.00;99.90;;;;;;5106477;28;20508;-57
2022/08/24 12:27:22;;;;;;;9.60;7.63;;;29.00;99.90;;;;;;5106238;28;20493;-50
2022/08/24 12:29:53;;;;;;;8.83;7.57;;;29.00;99.90;;;;;;5098379;28;20495;-58
2022/08/24 12:32:24;;;;;;;10.73;7.37;;;29.10;99.90;;;;;;5089341;28;20450;-58
2022/08/24 12:34:55;;;;;;;12.33;6.93;;;29.00;99.90;;;;;;5087780;28;20482;-60
2022/08/24 12:37:33;;;;;;;11.30;7.67;;;28.90;99.90;;;;;;5092029;28;20498;-62
2022/08/24 12:40:09;;;;;;;10.47;7.13;;;28.70;99.90;;;;;;5112963;28;20493;-58
2022/08/24 12:42:43;;;;;;;7.10;6.40;;;28.60;99.90;;;;;;5109991;28;20417;-55
2022/08/24 12:45:15;;;;;;;8.30;7.30;;;28.60;99.90;;;;;;5110484;28;20490;-56
2022/08/24 12:47:48;;;;;;;7.43;6.73;;;28.60;99.90;;;;;;5110337;28;20434;-59
2022/08/24 12:50:25;;;;;;;9.03;6.43;;;28.60;99.90;;;;;;5110620;28;20488;-54
2022/08/24 12:53:16;;;;;;;9.17;6.57;;;28.70;99.90;;;;;;5108992;28;20436;-58
2022/08/24 12:56:20;;;;;;;6.40;5.80;;;28.80;99.90;;;;;;5107590;28;20469;-58
2022/08/24 12:59:05;;;;;;;7.80;6.77;;;29.00;99.90;;;;;;5108111;28;20473;-55
2022/08/24 13:01:37;;;;;;;7.97;6.23;;;29.00;99.90;;;;;;5106685;28;20440;-54
2022/08/24 13:04:09;;;;;;;9.53;6.00;;;29.00;99.90;;;;;;5108362;28;20429;-58
2022/08/24 13:06:43;;;;;;;8.03;7.13;;;29.10;99.90;;;;;;5108533;28;20424;-52
2022/08/24 13:09:26;;;;;;;7.70;6.77;;;29.20;99.90;;;;;;5102955;28;20437;-55
2022/08/24 13:11:54;;;;;;;10.20;6.37;;;29.30;99.90;;;;;;5094117;28;20476;-55
2022/08/24 13:14:23;;;;;;;6.40;5.60;;;29.50;99.90;;;;;;5095994;28;20441;-58